| time (UTC) | temp F | wind direction | speed MPH | gust MPH | rain 1hr in | rain 24hr in | rain mn in | humidity % | barometer mb |
| 20260506212140 | 67 | 198 | 3.0 | 4.0 | 0.00 | 0.24 | 0.24 | 82 | 1005.2 |
| 20260506211140 | 66 | 261 | 0.0 | 2.0 | 0.00 | 0.24 | 0.24 | 82 | 1005.3 |
| 20260506210140 | 66 | 207 | 0.0 | 5.0 | 0.00 | 0.24 | 0.24 | 82 | 1005.4 |
| 20260506205140 | 66 | 171 | 1.0 | 11.0 | 0.00 | 0.24 | 0.24 | 81 | 1005.3 |
| 20260506204140 | 66 | 190 | 0.0 | 7.0 | 0.00 | 0.24 | 0.24 | 82 | 1005.3 |
| 20260506202140 | 66 | 191 | 0.0 | 10.0 | 0.00 | 0.24 | 0.24 | 84 | 1005.2 |
| 20260506201140 | 65 | 169 | 0.0 | 7.0 | 0.00 | 0.24 | 0.24 | 85 | 1005.2 |
| 20260506200140 | 65 | 219 | 3.0 | 14.0 | 0.00 | 0.24 | 0.24 | 86 | 1005.4 |
| 20260506195141 | 64 | 205 | 3.0 | 10.0 | 0.00 | 0.24 | 0.24 | 88 | 1005.4 |
| 20260506194141 | 63 | 202 | 0.0 | 5.0 | 0.00 | 0.24 | 0.24 | 89 | 1005.5 |
| 20260506193141 | 63 | 244 | 0.0 | 6.0 | 0.00 | 0.24 | 0.24 | 89 | 1005.6 |
| 20260506192140 | 62 | 227 | 6.0 | 6.0 | 0.00 | 0.24 | 0.24 | 90 | 1005.7 |
| 20260506191140 | 62 | 179 | 3.0 | 5.0 | 0.00 | 0.24 | 0.24 | 90 | 1005.9 |
| 20260506184140 | 62 | 200 | 0.0 | 17.0 | 0.00 | 0.24 | 0.24 | 89 | 1006.2 |
| 20260506183140 | 62 | 194 | 0.0 | 9.0 | 0.00 | 0.24 | 0.24 | 89 | 1006.2 |
| 20260506182140 | 62 | 199 | 2.0 | 14.0 | 0.00 | 0.24 | 0.24 | 89 | 1006.1 |
| 20260506181140 | 62 | 222 | 0.0 | 13.0 | 0.00 | 0.24 | 0.24 | 89 | 1006.2 |
| 20260506180141 | 62 | 196 | 0.0 | 14.0 | 0.00 | 0.24 | 0.24 | 89 | 1006.2 |
| 20260506175140 | 62 | 197 | 0.0 | 18.0 | 0.00 | 0.24 | 0.24 | 90 | 1006.3 |
| 20260506174141 | 62 | 219 | 7.0 | 12.0 | 0.00 | 0.24 | 0.24 | 90 | 1006.4 |
| 20260506173140 | 62 | 184 | 0.0 | 12.0 | 0.01 | 0.24 | 0.24 | 90 | 1006.2 |
| 20260506172140 | 62 | 160 | 4.0 | 10.0 | 0.01 | 0.24 | 0.24 | 90 | 1006.5 |
| 20260506171140 | 62 | 240 | 2.0 | 14.0 | 0.02 | 0.24 | 0.24 | 90 | 1006.6 |
| 20260506165140 | 62 | 196 | 6.0 | 9.0 | 0.05 | 0.24 | 0.24 | 91 | 1006.4 |
| 20260506163140 | 62 | 148 | 5.0 | 7.0 | 0.13 | 0.23 | 0.23 | 92 | 1006.4 |
| 20260506162140 | 61 | 193 | 0.0 | 4.0 | 0.16 | 0.23 | 0.23 | 91 | 1006.7 |
| 20260506161140 | 61 | 153 | 0.0 | 6.0 | 0.16 | 0.22 | 0.22 | 90 | 1007.2 |
| 20260506160139 | 61 | 171 | 0.0 | 10.0 | 0.17 | 0.21 | 0.21 | 89 | 1007.5 |
| 20260506155139 | 61 | 167 | 0.0 | 9.0 | 0.15 | 0.19 | 0.19 | 89 | 1007.7 |
| 20260506154139 | 62 | 181 | 0.0 | 13.0 | 0.11 | 0.13 | 0.13 | 88 | 1007.8 |
| 20260506153140 | 62 | 175 | 0.0 | 7.0 | 0.09 | 0.10 | 0.10 | 88 | 1007.7 |
| 20260506151139 | 63 | 181 | 0.0 | 4.0 | 0.06 | 0.06 | 0.06 | 87 | 1007.8 |
| 20260506145139 | 64 | 177 | 0.0 | 5.0 | 0.04 | 0.04 | 0.04 | 83 | 1007.5 |
| 20260506144139 | 64 | 178 | 0.0 | 8.0 | 0.02 | 0.02 | 0.02 | 81 | 1007.7 |
| 20260506143139 | 65 | 188 | 0.0 | 9.0 | 0.01 | 0.01 | 0.01 | 78 | 1007.7 |
| 20260506142140 | 66 | 210 | 0.0 | 5.0 | 0.00 | 0.00 | 0.00 | 76 | 1007.8 |
| 20260506141139 | 67 | 200 | 0.0 | 9.0 | 0.00 | 0.00 | 0.00 | 74 | 1007.8 |
| 20260506140139 | 67 | 157 | 0.0 | 11.0 | 0.00 | 0.00 | 0.00 | 71 | 1007.6 |
| 20260506134140 | 66 | 196 | 1.0 | 13.0 | 0.00 | 0.00 | 0.00 | 74 | 1007.6 |
| 20260506132139 | 66 | 189 | 0.0 | 14.0 | 0.00 | 0.00 | 0.00 | 74 | 1007.8 |
| 20260506131139 | 66 | 192 | 0.0 | 13.0 | 0.00 | 0.00 | 0.00 | 73 | 1007.8 |
| 20260506125139 | 66 | 146 | 0.0 | 13.0 | 0.00 | 0.00 | 0.00 | 74 | 1007.9 |
| 20260506124139 | 66 | 207 | 0.0 | 10.0 | 0.00 | 0.00 | 0.00 | 75 | 1007.9 |
| 20260506123139 | 65 | 199 | 0.0 | 1.0 | 0.00 | 0.00 | 0.00 | 75 | 1007.9 |
| 20260506121139 | 65 | 193 | 0.0 | 12.0 | 0.00 | 0.00 | 0.00 | 75 | 1007.7 |
| 20260506120139 | 65 | 184 | 0.0 | 16.0 | 0.00 | 0.00 | 0.00 | 76 | 1007.8 |
| 20260506115139 | 65 | 189 | 0.0 | 7.0 | 0.00 | 0.00 | 0.00 | 76 | 1007.7 |
| 20260506114140 | 65 | 171 | 7.0 | 7.0 | 0.00 | 0.00 | 0.00 | 76 | 1007.8 |
| 20260506022137 | 72 | 200 | 0.0 | 8.0 | 0.00 | 0.00 | 0.00 | 50 | 1008.5 |
| 20260506021137 | 73 | 135 | 3.0 | 15.0 | 0.00 | 0.00 | 0.00 | 49 | 1008.4 |
| 20260506020137 | 73 | 151 | 0.0 | 13.0 | 0.00 | 0.00 | 0.00 | 48 | 1008.4 |
| 20260506015137 | 73 | 187 | 1.0 | 10.0 | 0.00 | 0.00 | 0.00 | 47 | 1008.3 |
| 20260506014137 | 74 | 147 | 0.0 | 14.0 | 0.00 | 0.00 | 0.00 | 47 | 1008.2 |
| 20260506013137 | 74 | 169 | 0.0 | 13.0 | 0.00 | 0.00 | 0.00 | 46 | 1007.9 |
| 20260506012137 | 74 | 207 | 0.0 | 15.0 | 0.00 | 0.00 | 0.00 | 45 | 1007.9 |
| 20260506011137 | 74 | 127 | 3.0 | 15.0 | 0.00 | 0.00 | 0.00 | 44 | 1007.8 |
| 20260506010137 | 75 | 192 | 0.0 | 13.0 | 0.00 | 0.00 | 0.00 | 44 | 1007.7 |
| 20260506005137 | 75 | 205 | 8.0 | 15.0 | 0.00 | 0.00 | 0.00 | 43 | 1007.7 |
| 20260506002137 | 76 | 190 | 4.0 | 14.0 | 0.00 | 0.00 | 0.00 | 44 | 1007.4 |
| 20260506001137 | 76 | 198 | 5.0 | 16.0 | 0.00 | 0.00 | 0.00 | 44 | 1007.3 |
| 20260506000137 | 76 | 152 | 4.0 | 15.0 | 0.00 | 0.00 | 0.00 | 44 | 1007.2 |
| 20260505235137 | 77 | 194 | 1.0 | 12.0 | 0.00 | 0.00 | 0.00 | 43 | 1007.1 |
| 20260505234137 | 77 | 149 | 0.0 | 11.0 | 0.00 | 0.00 | 0.00 | 41 | 1007.0 |
| 20260505233137 | 78 | 201 | 1.0 | 11.0 | 0.00 | 0.00 | 0.00 | 39 | 1007.0 |
| 20260505232137 | 78 | 213 | 2.0 | 9.0 | 0.00 | 0.00 | 0.00 | 38 | 1007.0 |
| 20260505231137 | 78 | 194 | 6.0 | 14.0 | 0.00 | 0.00 | 0.00 | 37 | 1007.0 |
| 20260505230137 | 79 | 198 | 2.0 | 11.0 | 0.00 | 0.00 | 0.00 | 36 | 1007.0 |
| 20260505225138 | 79 | 204 | 4.0 | 13.0 | 0.00 | 0.00 | 0.00 | 36 | 1006.7 |
| 20260505224137 | 80 | 218 | 4.0 | 17.0 | 0.00 | 0.00 | 0.00 | 35 | 1006.7 |
| 20260505222136 | 80 | 204 | 3.0 | 20.0 | 0.00 | 0.00 | 0.00 | 34 | 1006.7 |
| 20260505221138 | 80 | 196 | 9.0 | 17.0 | 0.00 | 0.00 | 0.00 | 34 | 1006.7 |
| 20260505220137 | 80 | 190 | 2.0 | 18.0 | 0.00 | 0.00 | 0.00 | 34 | 1006.6 |
| 20260505213137 | 81 | 211 | 1.0 | 20.0 | 0.00 | 0.00 | 0.00 | 32 | 1006.4 |